createdAt,value
2022-07-31T00:00:31.653Z,99696.55
2022-07-31T00:01:34.976Z,99702.02
2022-07-31T00:02:38.268Z,99704.52
2022-07-31T00:03:41.107Z,99702.02
2022-07-31T00:04:44.233Z,99699.56
2022-07-31T00:05:46.990Z,99703.05
2022-07-31T00:06:50.273Z,99698.73
2022-07-31T00:07:52.841Z,99701.55
2022-07-31T00:08:55.410Z,99705.03
2022-07-31T00:09:57.977Z,99703.20
2022-07-31T00:11:01.153Z,99706.03
2022-07-31T00:12:04.438Z,99705.23
2022-07-31T00:13:07.008Z,99710.35
2022-07-31T00:14:09.680Z,99703.37
2022-07-31T00:15:12.346Z,99706.86
2022-07-31T00:16:17.294Z,99705.03
2022-07-31T00:17:20.206Z,99704.05
2022-07-31T00:18:22.808Z,99704.05
2022-07-31T00:19:25.484Z,99703.20
2022-07-31T00:20:29.995Z,99704.20
2022-07-31T00:21:32.658Z,99708.05
2022-07-31T00:22:35.745Z,99708.88
2022-07-31T00:23:38.746Z,99705.39
2022-07-31T00:24:41.408Z,99705.39
2022-07-31T00:25:43.951Z,99702.73
2022-07-31T00:26:46.684Z,99703.72
2022-07-31T00:27:51.240Z,99702.09
2022-07-31T00:28:53.907Z,99702.25
2022-07-31T00:29:56.596Z,99698.13
2022-07-31T00:30:59.402Z,99694.63
2022-07-31T00:32:02.026Z,99695.63
2022-07-31T00:33:04.639Z,99693.80
2022-07-31T00:34:07.252Z,99697.61
2022-07-31T00:35:10.021Z,99693.31
2022-07-31T00:36:16.272Z,99702.13
2022-07-31T00:37:18.901Z,99700.45
2022-07-31T00:38:28.579Z,99693.48
2022-07-31T00:39:26.030Z,99697.95
2022-07-31T00:40:29.099Z,99692.64
2022-07-31T00:41:31.766Z,99698.16
2022-07-31T00:42:34.341Z,99691.17
2022-07-31T00:43:37.015Z,99694.82
2022-07-31T00:44:39.552Z,99694.18
2022-07-31T00:45:42.144Z,99693.51
2022-07-31T00:46:46.852Z,99691.88
2022-07-31T00:47:49.428Z,99694.53
2022-07-31T00:48:53.821Z,99684.89
2022-07-31T00:49:56.604Z,99688.70
2022-07-31T00:50:59.515Z,99682.75
2022-07-31T00:52:02.145Z,99680.25
2022-07-31T00:53:04.711Z,99686.59
2022-07-31T00:54:07.447Z,99687.58
2022-07-31T00:55:10.053Z,99683.25
2022-07-31T00:56:14.564Z,99689.41
2022-07-31T00:57:17.042Z,99688.57
2022-07-31T00:58:19.638Z,99683.25
2022-07-31T00:59:24.866Z,99690.23
2022-07-31T01:00:27.815Z,99686.91
2022-07-31T01:01:30.772Z,99687.93
2022-07-31T01:02:33.447Z,99689.08
2022-07-31T01:03:36.013Z,99689.27
2022-07-31T01:04:41.714Z,99684.95
2022-07-31T01:05:43.190Z,99680.47
2022-07-31T01:06:45.965Z,99677.14
2022-07-31T01:07:48.532Z,99679.00
2022-07-31T01:08:51.100Z,99681.81
2022-07-31T01:09:54.897Z,99679.31
2022-07-31T01:10:58.179Z,99682.98
2022-07-31T01:12:00.851Z,99677.83
2022-07-31T01:13:03.623Z,99681.33
2022-07-31T01:14:06.183Z,99680.65
2022-07-31T01:15:08.754Z,99682.66
2022-07-31T01:16:11.832Z,99676.70
2022-07-31T01:17:14.356Z,99685.67
2022-07-31T01:18:16.986Z,99679.52
2022-07-31T01:19:19.657Z,99682.33
2022-07-31T01:20:24.045Z,99681.50
2022-07-31T01:21:27.023Z,99684.16
2022-07-31T01:22:33.338Z,99685.15
2022-07-31T01:23:34.105Z,99678.17
2022-07-31T01:24:36.667Z,99685.30
2022-07-31T01:25:39.345Z,99681.17
2022-07-31T01:26:42.215Z,99686.83
2022-07-31T01:27:49.536Z,99676.37
2022-07-31T01:28:49.257Z,99681.67
2022-07-31T01:29:51.863Z,99672.05
2022-07-31T01:31:10.707Z,99676.37
2022-07-31T01:31:59.244Z,99666.73
2022-07-31T01:33:01.935Z,99675.72
2022-07-31T01:34:04.479Z,99672.39
2022-07-31T01:35:07.046Z,99672.55
2022-07-31T01:36:10.538Z,99678.05
2022-07-31T01:37:13.102Z,99670.91
2022-07-31T01:38:15.671Z,99673.56
2022-07-31T01:39:18.235Z,99672.55
2022-07-31T01:40:21.838Z,99670.73
2022-07-31T01:41:24.455Z,99673.37
2022-07-31T01:42:27.479Z,99668.91
2022-07-31T01:43:30.151Z,99664.77
2022-07-31T01:44:32.815Z,99668.41
2022-07-31T01:45:35.380Z,99672.25
2022-07-31T01:46:41.581Z,99677.38
2022-07-31T01:47:42.726Z,99672.89
2022-07-31T01:48:45.791Z,99673.23
2022-07-31T01:49:48.620Z,99678.55
2022-07-31T01:50:51.600Z,99676.88
2022-07-31T01:51:54.883Z,99671.77
2022-07-31T01:52:58.776Z,99672.59
2022-07-31T01:54:01.371Z,99668.09
2022-07-31T01:55:04.332Z,99675.25
2022-07-31T01:56:07.086Z,99664.63
2022-07-31T01:57:09.763Z,99668.09
2022-07-31T01:58:12.323Z,99669.11
2022-07-31T01:59:20.538Z,99670.92
2022-07-31T02:00:34.402Z,99664.78
2022-07-31T02:01:27.383Z,99671.09
2022-07-31T02:02:30.483Z,99664.94
2022-07-31T02:03:42.864Z,99670.92
2022-07-31T02:04:37.970Z,99672.75
2022-07-31T02:05:40.682Z,99669.94
2022-07-31T02:06:43.515Z,99677.07
2022-07-31T02:07:46.072Z,99676.05
2022-07-31T02:08:48.611Z,99676.05
2022-07-31T02:09:57.873Z,99685.03
2022-07-31T02:10:56.028Z,99681.36
2022-07-31T02:11:58.527Z,99685.19
2022-07-31T02:13:01.060Z,99680.71
2022-07-31T02:14:03.629Z,99682.52
2022-07-31T02:15:06.296Z,99678.03
2022-07-31T02:16:10.561Z,99682.33
2022-07-31T02:17:13.038Z,99676.84
2022-07-31T02:18:17.539Z,99678.78
2022-07-31T02:19:20.163Z,99676.54
2022-07-31T02:20:24.627Z,99680.08
2022-07-31T02:21:27.429Z,99671.46
2022-07-31T02:22:30.411Z,99675.16
2022-07-31T02:23:33.039Z,99672.98
2022-07-31T02:24:35.643Z,99675.61
2022-07-31T02:25:38.212Z,99669.02
2022-07-31T02:26:41.057Z,99669.68
2022-07-31T02:27:57.460Z,99677.02
2022-07-31T02:28:48.175Z,99676.86
2022-07-31T02:29:50.799Z,99676.01
2022-07-31T02:30:53.605Z,99669.58
2022-07-31T02:32:01.876Z,99670.46
2022-07-31T02:33:00.587Z,99676.06
2022-07-31T02:34:03.253Z,99668.03
2022-07-31T02:35:05.819Z,99671.83
2022-07-31T02:36:09.202Z,99668.83
2022-07-31T02:37:11.783Z,99665.51
2022-07-31T02:38:17.142Z,99658.67
2022-07-31T02:39:18.851Z,99665.36
2022-07-31T02:40:23.159Z,99656.20
2022-07-31T02:41:26.134Z,99663.20
2022-07-31T02:42:29.417Z,99666.93
2022-07-31T02:43:32.353Z,99659.88
2022-07-31T02:44:35.046Z,99658.19
2022-07-31T02:45:37.708Z,99663.90
2022-07-31T02:46:40.707Z,99664.66
2022-07-31T02:47:43.314Z,99660.45
2022-07-31T02:48:45.841Z,99664.30
2022-07-31T02:49:48.718Z,99660.48
2022-07-31T02:50:51.650Z,99663.92
2022-07-31T02:51:54.469Z,99668.16
2022-07-31T02:52:57.646Z,99661.42
2022-07-31T02:54:00.212Z,99658.22
2022-07-31T02:55:03.092Z,99656.83
2022-07-31T02:56:05.964Z,99663.72
2022-07-31T02:57:08.614Z,99654.91
2022-07-31T02:58:11.164Z,99651.69
2022-07-31T02:59:13.763Z,99652.67
2022-07-31T03:00:17.272Z,99654.70
2022-07-31T03:01:20.259Z,99651.92
2022-07-31T03:02:22.879Z,99652.94
2022-07-31T03:03:27.391Z,99651.50
2022-07-31T03:04:30.208Z,99652.88
2022-07-31T03:05:32.786Z,99655.73
2022-07-31T03:07:38.311Z,99657.87
2022-07-31T03:08:41.276Z,99660.67
2022-07-31T03:09:43.833Z,99661.15
2022-07-31T03:10:46.709Z,99655.72
2022-07-31T03:11:49.290Z,99657.73
2022-07-31T03:12:51.984Z,99658.48
2022-07-31T03:13:54.476Z,99656.25
2022-07-31T03:14:57.284Z,99656.30
2022-07-31T03:16:00.077Z,99657.34
2022-07-31T03:17:02.724Z,99646.89
2022-07-31T03:18:11.137Z,99651.94
2022-07-31T03:19:09.827Z,99649.27
2022-07-31T03:20:13.191Z,99648.70
2022-07-31T03:21:16.173Z,99646.67
2022-07-31T03:22:19.452Z,99647.33
2022-07-31T03:23:22.119Z,99644.02
2022-07-31T03:24:24.788Z,99642.16
2022-07-31T03:25:27.356Z,99639.28
2022-07-31T03:26:31.052Z,99646.11
2022-07-31T03:27:35.564Z,99646.73
2022-07-31T03:28:38.140Z,99638.28
2022-07-31T03:29:43.253Z,99644.66
2022-07-31T03:30:45.412Z,99639.08
2022-07-31T03:31:47.981Z,99647.36
2022-07-31T03:32:50.655Z,99646.33
2022-07-31T03:33:53.623Z,99647.14
2022-07-31T03:34:56.149Z,99643.22
2022-07-31T03:35:58.784Z,99647.34
2022-07-31T03:37:01.695Z,99645.48
2022-07-31T03:38:39.684Z,99647.94
2022-07-31T03:39:08.811Z,99639.69
2022-07-31T03:40:12.248Z,99646.03
2022-07-31T03:41:15.380Z,99648.28
2022-07-31T03:42:18.842Z,99645.38
2022-07-31T03:43:22.053Z,99645.17
2022-07-31T03:44:24.617Z,99643.10
2022-07-31T03:45:27.184Z,99640.61
2022-07-31T03:46:30.368Z,99635.91
2022-07-31T03:47:32.934Z,99635.91
2022-07-31T03:48:35.601Z,99640.02
2022-07-31T03:49:38.284Z,99631.39
2022-07-31T03:50:41.386Z,99639.61
2022-07-31T03:51:43.919Z,99637.16
2022-07-31T03:52:46.444Z,99637.58
2022-07-31T03:53:49.052Z,99633.89
2022-07-31T03:54:51.621Z,99640.90
2022-07-31T03:55:54.184Z,99640.33
2022-07-31T03:56:57.372Z,99644.06
2022-07-31T03:58:00.037Z,99637.23
2022-07-31T03:59:02.611Z,99642.20
2022-07-31T04:00:07.913Z,99636.84
2022-07-31T04:01:12.344Z,99636.84
2022-07-31T04:02:17.172Z,99638.06
2022-07-31T04:03:19.836Z,99643.83
2022-07-31T04:04:22.539Z,99641.98
2022-07-31T04:05:25.184Z,99646.31
2022-07-31T04:06:29.694Z,99641.58
2022-07-31T04:07:33.332Z,99641.38
2022-07-31T04:08:35.941Z,99640.36
2022-07-31T04:09:38.601Z,99641.35
2022-07-31T04:10:41.395Z,99641.14
2022-07-31T04:11:43.908Z,99633.52
2022-07-31T04:12:46.515Z,99636.58
2022-07-31T04:13:49.084Z,99643.19
2022-07-31T04:14:51.656Z,99638.42
2022-07-31T04:15:54.323Z,99641.70
2022-07-31T04:16:57.296Z,99643.93
2022-07-31T04:17:59.866Z,99642.23
2022-07-31T04:19:02.633Z,99633.59
2022-07-31T04:20:05.879Z,99637.23
2022-07-31T04:21:09.191Z,99633.88
2022-07-31T04:22:11.772Z,99636.31
2022-07-31T04:23:14.540Z,99634.84
2022-07-31T04:24:17.516Z,99631.74
2022-07-31T04:25:20.107Z,99633.94
2022-07-31T04:26:26.258Z,99636.17
2022-07-31T04:27:28.085Z,99635.23
2022-07-31T04:28:30.654Z,99636.18
2022-07-31T04:29:33.331Z,99645.06
2022-07-31T04:30:37.806Z,99642.44
2022-07-31T04:31:40.417Z,99640.25
2022-07-31T04:32:43.069Z,99639.05
2022-07-31T04:33:47.939Z,99640.70
2022-07-31T04:34:50.155Z,99637.33
2022-07-31T04:35:52.718Z,99639.54
2022-07-31T04:38:05.733Z,99643.44
2022-07-31T04:39:08.403Z,99631.27
2022-07-31T04:40:11.992Z,99642.84
2022-07-31T04:41:14.853Z,99642.39
2022-07-31T04:42:17.717Z,99645.17
2022-07-31T04:43:20.312Z,99639.72
2022-07-31T04:44:22.880Z,99641.99
2022-07-31T04:45:25.402Z,99634.79
2022-07-31T04:46:29.879Z,99642.97
2022-07-31T04:47:32.420Z,99645.35
2022-07-31T04:48:35.045Z,99640.48
2022-07-31T04:49:39.909Z,99648.52
2022-07-31T04:50:42.872Z,99647.48
2022-07-31T04:51:45.452Z,99648.30
2022-07-31T04:52:48.020Z,99652.67
2022-07-31T04:53:50.593Z,99647.06
2022-07-31T04:54:53.265Z,99645.59
2022-07-31T04:55:56.044Z,99650.98
2022-07-31T04:57:00.543Z,99650.00
2022-07-31T04:58:03.232Z,99644.39
2022-07-31T04:59:05.893Z,99643.59
2022-07-31T05:00:09.409Z,99647.95
2022-07-31T05:01:12.430Z,99650.17
2022-07-31T05:02:16.857Z,99650.87
2022-07-31T05:03:19.641Z,99644.82
2022-07-31T05:04:22.254Z,99650.91
2022-07-31T05:05:25.172Z,99648.41
2022-07-31T05:06:29.480Z,99651.70
2022-07-31T05:07:32.143Z,99649.46
2022-07-31T05:08:34.673Z,99644.06
2022-07-31T05:09:37.224Z,99657.76
2022-07-31T05:10:40.626Z,99651.39
2022-07-31T05:11:43.232Z,99649.88
2022-07-31T05:12:45.900Z,99660.23
2022-07-31T05:13:48.468Z,99650.44
2022-07-31T05:14:50.999Z,99648.27
2022-07-31T05:15:53.604Z,99648.56
2022-07-31T05:16:56.481Z,99651.97
2022-07-31T05:17:59.247Z,99656.36
2022-07-31T05:19:01.830Z,99650.53
2022-07-31T05:20:04.794Z,99651.66
2022-07-31T05:21:07.357Z,99649.61
2022-07-31T05:22:10.494Z,99644.47
2022-07-31T05:23:13.927Z,99643.23
2022-07-31T05:24:16.492Z,99648.23
2022-07-31T05:25:21.003Z,99649.34
2022-07-31T05:26:25.416Z,99652.14
2022-07-31T05:27:32.069Z,99646.98
2022-07-31T05:28:32.555Z,99650.51
2022-07-31T05:29:35.165Z,99643.16
2022-07-31T05:30:38.553Z,99642.29
2022-07-31T05:31:41.131Z,99641.34
2022-07-31T05:32:45.656Z,99645.09
2022-07-31T05:33:48.201Z,99644.75
2022-07-31T05:34:50.731Z,99643.84
2022-07-31T05:35:54.049Z,99639.39
2022-07-31T05:36:57.026Z,99641.34
2022-07-31T05:37:59.653Z,99643.63
2022-07-31T05:39:02.215Z,99652.64
2022-07-31T05:40:05.953Z,99640.73
2022-07-31T05:41:09.131Z,99638.73
2022-07-31T05:42:12.522Z,99646.66
2022-07-31T05:43:15.454Z,99639.26
2022-07-31T05:44:18.164Z,99643.73
2022-07-31T05:45:20.733Z,99637.70
2022-07-31T05:46:25.036Z,99642.09
2022-07-31T05:47:40.680Z,99638.01
2022-07-31T05:48:32.120Z,99636.63
2022-07-31T05:49:34.780Z,99635.48
2022-07-31T05:50:37.563Z,99637.47
2022-07-31T05:51:40.201Z,99638.33
2022-07-31T05:52:42.807Z,99637.50
2022-07-31T05:53:45.879Z,99639.60
2022-07-31T05:54:48.848Z,99641.94
2022-07-31T05:55:51.428Z,99634.19
2022-07-31T05:56:54.187Z,99637.57
2022-07-31T05:57:56.781Z,99635.92
2022-07-31T05:58:59.320Z,99626.05
2022-07-31T06:00:03.880Z,99629.55
2022-07-31T06:01:06.436Z,99639.45
2022-07-31T06:02:09.453Z,99634.03
2022-07-31T06:03:12.663Z,99635.39
2022-07-31T06:04:15.332Z,99634.33
2022-07-31T06:05:17.858Z,99627.50
2022-07-31T06:06:21.003Z,99624.89
2022-07-31T06:07:23.549Z,99631.31
2022-07-31T06:08:26.361Z,99630.66
2022-07-31T06:09:28.984Z,99628.63
2022-07-31T06:10:32.273Z,99625.31
2022-07-31T06:11:34.895Z,99623.25
2022-07-31T06:12:37.504Z,99629.62
2022-07-31T06:13:40.067Z,99626.23
2022-07-31T06:14:42.638Z,99625.30
2022-07-31T06:15:49.458Z,99619.89
2022-07-31T06:16:50.138Z,99623.48
2022-07-31T06:17:52.796Z,99612.45
2022-07-31T06:18:55.464Z,99615.80
2022-07-31T06:19:58.137Z,99620.23
2022-07-31T06:21:00.970Z,99618.11
2022-07-31T06:22:04.032Z,99616.08
2022-07-31T06:23:22.448Z,99618.64
2022-07-31T06:24:11.535Z,99621.47
2022-07-31T06:25:16.093Z,99620.94
2022-07-31T06:26:20.495Z,99613.46
2022-07-31T06:27:33.794Z,99612.22
2022-07-31T06:28:44.752Z,99613.08
2022-07-31T06:29:40.987Z,99622.63
2022-07-31T06:30:39.584Z,99616.09
2022-07-31T06:31:42.239Z,99614.36
2022-07-31T06:32:44.807Z,99621.48
2022-07-31T06:33:48.437Z,99605.16
2022-07-31T06:34:51.479Z,99612.06
2022-07-31T06:35:54.049Z,99606.14
2022-07-31T06:36:57.020Z,99609.47
2022-07-31T06:37:59.710Z,99607.41
2022-07-31T06:39:02.258Z,99611.80
2022-07-31T06:40:05.132Z,99603.17
2022-07-31T06:41:07.800Z,99610.03
2022-07-31T06:42:10.368Z,99601.61
2022-07-31T06:43:12.932Z,99605.48
2022-07-31T06:44:15.809Z,99601.61
2022-07-31T06:45:35.530Z,99589.15
2022-07-31T06:46:23.421Z,99588.17
2022-07-31T06:47:26.482Z,99595.87
2022-07-31T06:48:29.148Z,99586.53
2022-07-31T06:49:31.727Z,99595.02
2022-07-31T06:50:35.508Z,99597.25
2022-07-31T06:51:38.079Z,99594.30
2022-07-31T06:52:40.643Z,99592.38
2022-07-31T06:53:43.320Z,99586.64
2022-07-31T06:54:45.879Z,99588.93
2022-07-31T06:55:48.446Z,99588.04
2022-07-31T06:56:51.216Z,99592.69
2022-07-31T06:57:53.782Z,99592.45
2022-07-31T06:58:56.355Z,99581.42
2022-07-31T06:59:59.018Z,99589.48
2022-07-31T07:01:01.986Z,99591.03
2022-07-31T07:02:05.221Z,99593.88
2022-07-31T07:03:08.068Z,99593.14
2022-07-31T07:04:10.927Z,99594.83
2022-07-31T07:05:13.492Z,99601.45
2022-07-31T07:06:16.779Z,99589.56
2022-07-31T07:07:19.352Z,99588.04
2022-07-31T07:08:21.867Z,99587.55
2022-07-31T07:09:24.476Z,99595.20
2022-07-31T07:10:27.759Z,99588.24
2022-07-31T07:11:30.325Z,99579.36
2022-07-31T07:12:32.894Z,99596.18
2022-07-31T07:13:45.263Z,99590.32
2022-07-31T07:14:41.815Z,99589.08
2022-07-31T07:15:44.507Z,99591.88
2022-07-31T07:16:47.157Z,99591.34
2022-07-31T07:17:49.739Z,99590.09
2022-07-31T07:18:52.410Z,99585.31
2022-07-31T07:19:55.849Z,99585.89
2022-07-31T07:20:59.100Z,99582.69
2022-07-31T07:22:02.406Z,99584.32
2022-07-31T07:23:05.533Z,99586.22
2022-07-31T07:24:08.153Z,99577.23
2022-07-31T07:25:10.721Z,99581.30
2022-07-31T07:26:13.742Z,99576.70
2022-07-31T07:27:16.411Z,99583.23
2022-07-31T07:28:30.582Z,99571.81
2022-07-31T07:29:23.489Z,99578.16
2022-07-31T07:30:27.900Z,99575.28
2022-07-31T07:31:30.487Z,99575.55
2022-07-31T07:32:33.031Z,99586.08
2022-07-31T07:33:41.044Z,99568.77
2022-07-31T07:34:40.111Z,99573.95
2022-07-31T07:35:42.679Z,99573.72
2022-07-31T07:36:45.553Z,99575.63
2022-07-31T07:37:48.134Z,99576.43
2022-07-31T07:38:50.835Z,99574.75
2022-07-31T07:39:54.176Z,99566.75
2022-07-31T07:40:57.156Z,99573.27
2022-07-31T07:41:59.729Z,99573.90
2022-07-31T07:43:03.369Z,99571.66
2022-07-31T07:44:06.085Z,99569.70
2022-07-31T07:45:08.649Z,99579.00
2022-07-31T07:46:11.759Z,99581.02
2022-07-31T07:47:14.297Z,99574.50
2022-07-31T07:48:16.862Z,99573.58
2022-07-31T07:49:20.066Z,99567.80
2022-07-31T07:50:26.771Z,99569.08
2022-07-31T07:51:28.149Z,99571.06
2022-07-31T07:52:30.817Z,99574.00
2022-07-31T07:53:33.383Z,99558.47
2022-07-31T07:54:35.893Z,99577.71
2022-07-31T07:55:38.474Z,99570.23
2022-07-31T07:56:41.508Z,99574.11
2022-07-31T07:57:44.168Z,99567.97
2022-07-31T07:58:46.791Z,99573.94
2022-07-31T07:59:49.621Z,99562.78
2022-07-31T08:00:52.531Z,99568.53
2022-07-31T08:01:55.449Z,99564.19
2022-07-31T08:03:47.071Z,99563.91
2022-07-31T08:04:02.500Z,99564.43
2022-07-31T08:05:05.012Z,99553.80
2022-07-31T08:06:08.284Z,99560.36
2022-07-31T08:07:12.788Z,99560.92
2022-07-31T08:08:15.355Z,99560.36
2022-07-31T08:09:17.936Z,99563.05
2022-07-31T08:10:22.343Z,99559.46
2022-07-31T08:11:24.900Z,99555.86
2022-07-31T08:12:27.477Z,99556.31
2022-07-31T08:13:30.047Z,99552.07
2022-07-31T08:14:32.611Z,99545.72
2022-07-31T08:15:35.269Z,99554.73
2022-07-31T08:16:38.039Z,99545.09
2022-07-31T08:17:40.621Z,99548.01
2022-07-31T08:18:44.976Z,99550.66
2022-07-31T08:19:51.167Z,99547.07
2022-07-31T08:20:52.096Z,99544.20
2022-07-31T08:21:54.983Z,99537.31
2022-07-31T08:22:58.048Z,99552.11
2022-07-31T08:24:01.025Z,99545.39
2022-07-31T08:25:05.329Z,99540.72
2022-07-31T08:26:09.460Z,99542.38
2022-07-31T08:27:12.154Z,99535.27
2022-07-31T08:28:19.298Z,99531.22
2022-07-31T08:29:26.541Z,99537.67
2022-07-31T08:30:30.700Z,99527.63
2022-07-31T08:31:30.682Z,99533.59
2022-07-31T08:32:33.241Z,99541.45
2022-07-31T08:33:35.863Z,99534.36
2022-07-31T08:34:41.840Z,99531.62
2022-07-31T08:35:44.800Z,99538.58
2022-07-31T08:36:47.722Z,99526.77
2022-07-31T08:37:52.310Z,99521.75
2022-07-31T08:38:54.782Z,99531.36
2022-07-31T08:39:57.346Z,99526.35
2022-07-31T08:41:00.325Z,99521.42
2022-07-31T08:42:04.146Z,99537.20
2022-07-31T08:43:07.466Z,99530.45
2022-07-31T08:44:12.019Z,99534.00
2022-07-31T08:45:14.543Z,99523.94
2022-07-31T08:46:17.625Z,99533.79
2022-07-31T08:47:20.235Z,99525.88
2022-07-31T08:48:22.903Z,99523.31
2022-07-31T08:49:25.529Z,99524.88
2022-07-31T08:50:30.182Z,99515.33
2022-07-31T08:51:34.493Z,99522.19
2022-07-31T08:52:38.903Z,99517.95
2022-07-31T08:53:41.471Z,99523.31
2022-07-31T08:54:44.042Z,99526.75
2022-07-31T08:55:55.082Z,99520.09
2022-07-31T08:56:51.451Z,99523.55
2022-07-31T08:57:54.360Z,99514.90
2022-07-31T08:58:56.968Z,99514.86
2022-07-31T08:59:59.642Z,99513.73
2022-07-31T09:01:02.373Z,99523.85
2022-07-31T09:02:05.640Z,99517.32
2022-07-31T09:03:08.674Z,99524.73
2022-07-31T09:04:11.189Z,99526.48
2022-07-31T09:05:13.909Z,99516.77
2022-07-31T09:06:18.312Z,99513.84
2022-07-31T09:07:20.902Z,99514.23
2022-07-31T09:08:23.865Z,99502.36
2022-07-31T09:09:50.771Z,99509.28
2022-07-31T09:10:31.751Z,99507.76
2022-07-31T09:11:34.428Z,99509.94
2022-07-31T09:12:37.016Z,99513.39
2022-07-31T09:13:39.559Z,99507.15
2022-07-31T09:14:42.124Z,99508.84
2022-07-31T09:15:44.810Z,99512.55
2022-07-31T09:16:47.727Z,99500.95
2022-07-31T09:17:51.944Z,99506.04
2022-07-31T09:18:54.856Z,99509.50
2022-07-31T09:19:57.520Z,99508.58
2022-07-31T09:21:00.536Z,99514.70
2022-07-31T09:22:10.148Z,99510.19
2022-07-31T09:23:09.519Z,99512.14
2022-07-31T09:24:12.189Z,99505.37
2022-07-31T09:25:14.856Z,99507.41
2022-07-31T09:26:19.295Z,99504.66
2022-07-31T09:27:21.935Z,99507.17
2022-07-31T09:28:25.283Z,99513.40
2022-07-31T09:29:27.991Z,99511.73
2022-07-31T09:30:31.277Z,99512.34
2022-07-31T09:31:33.907Z,99505.85
2022-07-31T09:32:36.511Z,99498.13
2022-07-31T09:33:43.672Z,99503.75
2022-07-31T09:34:43.727Z,99502.72
2022-07-31T09:35:46.260Z,99488.27
2022-07-31T09:36:49.132Z,99494.09
2022-07-31T09:37:51.904Z,99492.55
2022-07-31T09:38:54.471Z,99500.36
2022-07-31T09:39:57.186Z,99498.55
2022-07-31T09:41:00.628Z,99499.62
2022-07-31T09:42:16.463Z,99500.01
2022-07-31T09:43:09.657Z,99499.23
2022-07-31T09:44:12.737Z,99501.09
2022-07-31T09:45:15.407Z,99497.73
2022-07-31T09:46:18.576Z,99507.06
2022-07-31T09:47:21.251Z,99496.13
2022-07-31T09:48:26.260Z,99498.45
2022-07-31T09:49:28.374Z,99500.80
2022-07-31T09:50:32.337Z,99493.27
2022-07-31T09:51:35.001Z,99493.84
2022-07-31T09:52:37.689Z,99491.59
2022-07-31T09:53:43.351Z,99493.58
2022-07-31T09:54:44.811Z,99486.29
2022-07-31T09:55:47.623Z,99493.92
2022-07-31T09:56:50.404Z,99491.20
2022-07-31T09:57:53.232Z,99478.58
2022-07-31T09:58:55.839Z,99475.38
2022-07-31T09:59:58.361Z,99478.87
2022-07-31T10:01:01.306Z,99468.92
2022-07-31T10:02:04.260Z,99476.07
2022-07-31T10:03:07.233Z,99486.20
2022-07-31T10:04:09.900Z,99477.77
2022-07-31T10:05:12.473Z,99485.09
2022-07-31T10:06:16.647Z,99489.50
2022-07-31T10:07:32.004Z,99484.30
2022-07-31T10:08:23.956Z,99481.21
2022-07-31T10:09:26.481Z,99477.03
2022-07-31T10:10:29.911Z,99480.38
2022-07-31T10:11:32.579Z,99473.59
2022-07-31T10:12:35.150Z,99486.06
2022-07-31T10:13:42.352Z,99477.97
2022-07-31T10:14:42.428Z,99479.91
2022-07-31T10:15:45.059Z,99479.84
2022-07-31T10:16:48.047Z,99478.05
2022-07-31T10:17:50.727Z,99485.17
2022-07-31T10:18:53.312Z,99475.95
2022-07-31T10:19:55.880Z,99478.34
2022-07-31T10:20:59.066Z,99475.11
2022-07-31T10:22:03.777Z,99486.88
2022-07-31T10:23:06.552Z,99496.37
2022-07-31T10:24:09.484Z,99486.19
2022-07-31T10:25:12.236Z,99490.86
2022-07-31T10:26:16.099Z,99480.91
2022-07-31T10:27:18.777Z,99473.02
2022-07-31T10:28:22.308Z,99474.52
2022-07-31T10:29:24.919Z,99477.42
2022-07-31T10:30:28.777Z,99476.53
2022-07-31T10:31:31.592Z,99471.61
2022-07-31T10:32:34.121Z,99468.01
2022-07-31T10:33:44.991Z,99467.23
2022-07-31T10:34:41.256Z,99468.52
2022-07-31T10:35:43.834Z,99482.13
2022-07-31T10:36:48.668Z,99479.01
2022-07-31T10:37:51.402Z,99475.06
2022-07-31T10:38:54.062Z,99472.98
2022-07-31T10:39:56.744Z,99470.22
2022-07-31T10:40:59.616Z,99468.42
2022-07-31T10:42:02.283Z,99469.23
2022-07-31T10:43:05.357Z,99481.91
2022-07-31T10:44:07.938Z,99470.22
2022-07-31T10:45:10.694Z,99475.40
2022-07-31T10:46:13.463Z,99474.59
2022-07-31T10:47:16.240Z,99465.20
2022-07-31T10:48:18.904Z,99456.56
2022-07-31T10:49:21.519Z,99462.38
2022-07-31T10:50:24.407Z,99451.27
2022-07-31T10:51:26.972Z,99438.79
2022-07-31T10:52:29.481Z,99453.23
2022-07-31T10:53:50.311Z,99462.53
2022-07-31T10:54:36.564Z,99455.13
2022-07-31T10:55:39.187Z,99450.51
2022-07-31T10:56:42.717Z,99453.74
2022-07-31T10:57:56.290Z,99440.72
2022-07-31T10:58:49.796Z,99447.33
2022-07-31T10:59:52.364Z,99439.77
2022-07-31T11:00:55.258Z,99445.77
2022-07-31T11:01:58.419Z,99446.91
2022-07-31T11:03:01.495Z,99432.80
2022-07-31T11:04:04.498Z,99432.17
2022-07-31T11:05:07.140Z,99434.66
2022-07-31T11:06:10.392Z,99438.06
2022-07-31T11:07:12.993Z,99438.29
2022-07-31T11:08:15.518Z,99443.16
2022-07-31T11:09:18.129Z,99439.27
2022-07-31T11:10:21.718Z,99441.54
2022-07-31T11:11:26.255Z,99443.20
2022-07-31T11:12:28.800Z,99436.80
2022-07-31T11:13:34.124Z,99442.63
2022-07-31T11:14:36.003Z,99439.16
2022-07-31T11:15:38.477Z,99440.81
2022-07-31T11:16:42.138Z,99435.51
2022-07-31T11:18:25.332Z,99433.52
2022-07-31T11:18:49.334Z,99434.69
2022-07-31T11:19:51.918Z,99426.84
2022-07-31T11:20:54.868Z,99433.12
2022-07-31T11:21:58.147Z,99428.29
2022-07-31T11:23:02.603Z,99423.58
2022-07-31T11:24:08.706Z,99423.09
2022-07-31T11:25:09.535Z,99423.92
2022-07-31T11:26:13.119Z,99419.84
2022-07-31T11:27:15.687Z,99430.83
2022-07-31T11:28:18.356Z,99421.73
2022-07-31T11:30:02.079Z,99423.90
2022-07-31T11:30:27.381Z,99422.64
2022-07-31T11:31:29.983Z,99418.88
2022-07-31T11:32:32.477Z,99419.69
2022-07-31T11:33:41.906Z,99433.17
2022-07-31T11:34:39.903Z,99423.73
2022-07-31T11:35:42.476Z,99428.13
2022-07-31T11:36:50.726Z,99417.19
2022-07-31T11:37:57.949Z,99409.59
2022-07-31T11:38:54.369Z,99414.70
2022-07-31T11:39:56.935Z,99411.41
2022-07-31T11:41:00.016Z,99414.23
2022-07-31T11:42:03.299Z,99404.30
2022-07-31T11:43:25.411Z,99406.73
2022-07-31T11:44:10.786Z,99402.06
2022-07-31T11:45:13.355Z,99412.14
2022-07-31T11:46:16.353Z,99400.99
2022-07-31T11:48:10.063Z,99403.47
2022-07-31T11:48:27.194Z,99403.55
2022-07-31T11:49:44.125Z,99403.97
2022-07-31T11:50:33.824Z,99401.25
2022-07-31T11:51:36.847Z,99404.55
2022-07-31T11:52:39.590Z,99404.56
2022-07-31T11:53:42.489Z,99399.41
2022-07-31T11:54:45.056Z,99403.10
2022-07-31T11:55:47.579Z,99398.20
2022-07-31T11:56:50.495Z,99407.89
2022-07-31T11:57:53.165Z,99394.51
2022-07-31T11:58:55.736Z,99396.27
2022-07-31T11:59:58.306Z,99400.85
2022-07-31T12:01:01.790Z,99403.12
2022-07-31T12:02:04.915Z,99410.95
2022-07-31T12:03:07.519Z,99409.02
2022-07-31T12:04:10.458Z,99406.90
2022-07-31T12:05:13.108Z,99408.42
2022-07-31T12:06:16.054Z,99406.23
2022-07-31T12:07:18.724Z,99406.78
2022-07-31T12:08:21.396Z,99402.32
2022-07-31T12:10:00.754Z,99397.72
2022-07-31T12:10:30.213Z,99399.16
2022-07-31T12:11:32.784Z,99404.11
2022-07-31T12:12:35.557Z,99402.55
2022-07-31T12:13:38.093Z,99393.91
2022-07-31T12:14:41.413Z,99389.17
2022-07-31T12:15:44.080Z,99388.22
2022-07-31T12:16:47.050Z,99398.11
2022-07-31T12:17:49.651Z,99392.63
2022-07-31T12:18:52.182Z,99389.03
2022-07-31T12:19:57.837Z,99394.14
2022-07-31T12:20:59.322Z,99386.89
2022-07-31T12:22:01.932Z,99394.23
2022-07-31T12:23:04.599Z,99392.80